createdAt,value
2018-06-05T00:01:22.895Z,20.60
2018-06-05T00:03:51.995Z,18.93
2018-06-05T00:06:21.075Z,20.10
2018-06-05T00:08:50.131Z,20.33
2018-06-05T00:11:19.547Z,21.53
2018-06-05T00:13:48.626Z,19.80
2018-06-05T00:16:17.707Z,22.00
2018-06-05T00:18:46.811Z,19.27
2018-06-05T00:21:15.888Z,20.40
2018-06-05T00:23:44.985Z,19.80
2018-06-05T00:26:14.045Z,20.20
2018-06-05T00:28:43.119Z,18.73
2018-06-05T00:31:12.229Z,19.00
2018-06-05T00:33:41.322Z,20.33
2018-06-05T00:36:10.164Z,19.43
2018-06-05T00:38:39.111Z,21.53
2018-06-05T00:41:08.322Z,19.40
2018-06-05T00:43:37.387Z,19.03
2018-06-05T00:46:06.475Z,20.70
2018-06-05T00:48:35.694Z,20.13
2018-06-05T00:51:14.884Z,21.90
2018-06-05T00:53:43.968Z,20.73
2018-06-05T00:56:13.060Z,20.23
2018-06-05T00:58:42.143Z,19.30
2018-06-05T01:01:11.422Z,21.70
2018-06-05T01:03:40.536Z,21.70
2018-06-05T01:06:09.646Z,20.30
2018-06-05T01:08:38.739Z,21.07
2018-06-05T01:11:07.848Z,19.60
2018-06-05T01:13:36.944Z,18.87
2018-06-05T01:16:06.010Z,20.90
2018-06-05T01:18:35.079Z,22.13
2018-06-05T01:21:04.163Z,20.40
2018-06-05T01:23:33.231Z,20.23
2018-06-05T01:26:02.294Z,20.63
2018-06-05T01:28:31.410Z,22.30
2018-06-05T01:31:00.463Z,21.23
2018-06-05T01:33:29.520Z,21.03
2018-06-05T01:35:58.628Z,21.03
2018-06-05T01:38:27.720Z,20.90
2018-06-05T01:40:58.819Z,21.50
2018-06-05T01:43:27.931Z,23.30
2018-06-05T01:45:57.024Z,22.60
2018-06-05T01:48:26.074Z,24.93
2018-06-05T01:50:55.175Z,22.93
2018-06-05T01:53:24.283Z,22.07
2018-06-05T01:55:53.403Z,22.60
2018-06-05T01:58:22.558Z,22.70
2018-06-05T02:00:51.623Z,22.87
2018-06-05T02:03:20.723Z,24.13
2018-06-05T02:05:49.822Z,23.63
2018-06-05T02:08:18.896Z,23.03
2018-06-05T02:10:48.356Z,23.40
2018-06-05T02:13:17.400Z,23.47
2018-06-05T02:15:46.469Z,22.83
2018-06-05T02:18:15.555Z,23.30
2018-06-05T02:20:44.672Z,23.73
2018-06-05T02:23:13.756Z,25.00
2018-06-05T02:25:48.735Z,24.17
2018-06-05T02:28:17.785Z,22.30
2018-06-05T02:30:46.883Z,25.20
2018-06-05T02:33:16.036Z,24.07
2018-06-05T02:35:45.108Z,22.40
2018-06-05T02:38:14.179Z,22.60
2018-06-05T02:40:43.284Z,24.50
2018-06-05T02:43:12.347Z,24.67
2018-06-05T02:45:41.429Z,21.20
2018-06-05T02:48:10.541Z,22.77
2018-06-05T02:50:39.725Z,23.40
2018-06-05T02:53:08.821Z,22.47
2018-06-05T02:55:37.666Z,22.17
2018-06-05T02:58:06.685Z,22.50
2018-06-05T03:00:35.754Z,23.60
2018-06-05T03:03:04.846Z,21.40
2018-06-05T03:05:33.962Z,21.90
2018-06-05T03:08:03.060Z,21.50
2018-06-05T03:10:32.189Z,21.13
2018-06-05T03:13:01.296Z,19.43
2018-06-05T03:15:30.510Z,20.10
2018-06-05T03:17:59.569Z,19.93
2018-06-05T03:20:29.159Z,17.90
2018-06-05T03:22:58.206Z,17.30
2018-06-05T03:25:27.288Z,17.23
2018-06-05T03:27:56.367Z,17.90
2018-06-05T03:30:25.447Z,17.73
2018-06-05T03:32:54.539Z,16.23
2018-06-05T03:35:23.611Z,15.33
2018-06-05T03:37:52.727Z,16.53
2018-06-05T03:40:21.823Z,15.07
2018-06-05T03:42:50.894Z,17.00
2018-06-05T03:45:19.974Z,15.70
2018-06-05T03:47:49.035Z,15.77
2018-06-05T03:50:18.095Z,16.70
2018-06-05T03:52:47.186Z,16.33
2018-06-05T03:55:16.132Z,16.43
2018-06-05T03:57:45.087Z,15.00
2018-06-05T04:00:14.208Z,16.47
2018-06-05T04:02:43.415Z,15.93
2018-06-05T04:05:12.488Z,15.50
2018-06-05T04:07:41.566Z,15.40
2018-06-05T04:10:10.647Z,15.23
2018-06-05T04:12:39.752Z,14.97
2018-06-05T04:15:08.845Z,15.47
2018-06-05T04:17:37.903Z,16.03
2018-06-05T04:20:07.012Z,15.23
2018-06-05T04:22:36.093Z,16.80
2018-06-05T04:25:05.167Z,15.00
2018-06-05T04:27:34.287Z,15.00
2018-06-05T04:30:03.442Z,15.37
2018-06-05T04:32:32.507Z,14.60
2018-06-05T04:35:01.610Z,15.10
2018-06-05T04:37:30.666Z,15.73
2018-06-05T04:39:59.724Z,16.03
2018-06-05T04:42:28.803Z,13.97
2018-06-05T04:44:57.872Z,16.40
2018-06-05T04:47:26.955Z,15.37
2018-06-05T04:49:56.103Z,17.23
2018-06-05T04:52:25.182Z,16.23
2018-06-05T04:54:54.327Z,15.67
2018-06-05T04:57:23.391Z,16.67
2018-06-05T04:59:52.439Z,15.37
2018-06-05T05:02:21.564Z,16.20
2018-06-05T05:04:50.659Z,16.27
2018-06-05T05:07:19.767Z,16.50
2018-06-05T05:09:48.851Z,15.97
2018-06-05T05:12:17.932Z,15.53
2018-06-05T05:14:46.766Z,15.90
2018-06-05T05:17:15.735Z,18.47
2018-06-05T05:19:44.871Z,16.57
2018-06-05T05:22:14.017Z,16.57
2018-06-05T05:24:43.081Z,15.57
2018-06-05T05:27:12.247Z,17.30
2018-06-05T05:29:41.425Z,15.80
2018-06-05T05:32:10.488Z,15.70
2018-06-05T05:34:39.576Z,17.00
2018-06-05T05:37:08.662Z,15.73
2018-06-05T05:39:37.764Z,15.67
2018-06-05T05:42:06.885Z,16.57
2018-06-05T05:44:35.718Z,15.43
2018-06-05T05:47:04.792Z,16.70
2018-06-05T05:49:33.859Z,15.50
2018-06-05T05:52:03.008Z,15.53
2018-06-05T05:54:32.104Z,16.07
2018-06-05T05:57:01.223Z,15.07
2018-06-05T05:59:30.317Z,16.20
2018-06-05T06:01:59.400Z,15.83
2018-06-05T06:04:28.558Z,16.50
2018-06-05T06:06:57.687Z,14.50
2018-06-05T06:09:26.785Z,15.17
2018-06-05T06:11:55.881Z,14.57
2018-06-05T06:14:24.948Z,15.03
2018-06-05T06:16:54.020Z,14.33
2018-06-05T06:19:23.123Z,15.67
2018-06-05T06:21:52.235Z,15.43
2018-06-05T06:24:21.312Z,16.50
2018-06-05T06:26:50.422Z,16.30
2018-06-05T06:29:19.539Z,15.47
2018-06-05T06:31:48.710Z,15.17
2018-06-05T06:34:17.786Z,15.33
2018-06-05T06:36:46.613Z,16.00
2018-06-05T06:39:15.621Z,16.20
2018-06-05T06:41:44.728Z,16.53
2018-06-05T06:44:13.804Z,15.83
2018-06-05T06:46:43.048Z,15.00
2018-06-05T06:49:12.220Z,15.23
2018-06-05T06:51:41.314Z,15.17
2018-06-05T06:54:10.487Z,15.00
2018-06-05T06:56:39.560Z,15.30
2018-06-05T06:59:08.638Z,15.47
2018-06-05T07:01:37.730Z,14.90
2018-06-05T07:04:06.884Z,15.73
2018-06-05T07:06:35.976Z,15.70
2018-06-05T07:09:07.708Z,16.37
2018-06-05T07:11:37.246Z,15.97
2018-06-05T07:14:06.484Z,15.67
2018-06-05T07:16:35.547Z,15.93
2018-06-05T07:19:04.656Z,16.37
2018-06-05T07:21:33.555Z,16.00
2018-06-05T07:24:02.514Z,15.33
2018-06-05T07:26:31.600Z,15.80
2018-06-05T07:29:00.772Z,16.50
2018-06-05T07:31:29.868Z,14.60
2018-06-05T07:33:59.003Z,14.80
2018-06-05T07:36:28.090Z,15.83
2018-06-05T07:38:57.153Z,16.57
2018-06-05T07:41:26.319Z,16.37
2018-06-05T07:43:55.405Z,15.87
2018-06-05T07:46:24.617Z,17.00
2018-06-05T07:48:53.704Z,17.57
2018-06-05T07:51:22.774Z,17.93
2018-06-05T07:53:51.847Z,18.13
2018-06-05T07:56:20.927Z,17.10
2018-06-05T07:58:50.016Z,18.00
2018-06-05T08:01:19.070Z,16.33
2018-06-05T08:03:48.192Z,16.70
2018-06-05T08:06:17.269Z,15.93
2018-06-05T08:08:46.366Z,18.63
2018-06-05T08:11:15.467Z,16.37
2018-06-05T08:13:44.588Z,16.40
2018-06-05T08:16:13.713Z,18.00
2018-06-05T08:18:42.885Z,17.07
2018-06-05T08:21:11.998Z,17.00
2018-06-05T08:23:41.083Z,17.83
2018-06-05T08:26:10.166Z,17.53
2018-06-05T08:28:38.962Z,17.80
2018-06-05T08:31:07.950Z,17.80
2018-06-05T08:33:37.051Z,16.80
2018-06-05T08:36:06.125Z,16.07
2018-06-05T08:38:34.956Z,16.70
2018-06-05T08:41:03.951Z,18.50
2018-06-05T08:43:33.038Z,16.67
2018-06-05T08:46:02.116Z,17.30
2018-06-05T08:48:31.199Z,18.27
2018-06-05T08:51:00.294Z,18.90
2018-06-05T08:53:29.097Z,18.00
2018-06-05T08:55:58.048Z,17.17
2018-06-05T08:58:27.111Z,17.03
2018-06-05T09:00:56.251Z,18.97
2018-06-05T09:03:25.362Z,16.40
2018-06-05T09:05:54.455Z,17.40
2018-06-05T09:08:23.572Z,16.20
2018-06-05T09:10:52.664Z,16.10
2018-06-05T09:13:21.758Z,15.70
2018-06-05T09:15:51.150Z,16.50
2018-06-05T09:18:20.240Z,17.93
2018-06-05T09:20:49.383Z,16.03
2018-06-05T09:23:18.495Z,16.00
2018-06-05T09:25:47.598Z,15.20
2018-06-05T09:28:16.678Z,15.77
2018-06-05T09:30:45.788Z,16.47
2018-06-05T09:33:14.868Z,16.40
2018-06-05T09:35:43.976Z,14.77
2018-06-05T09:38:13.084Z,14.70
2018-06-05T09:40:42.169Z,14.97
2018-06-05T09:43:11.231Z,14.50
2018-06-05T09:45:40.312Z,15.73
2018-06-05T09:48:09.364Z,15.10
2018-06-05T09:50:38.720Z,16.03
2018-06-05T09:53:07.791Z,16.07
2018-06-05T09:55:36.883Z,15.90
2018-06-05T09:58:06.675Z,15.77
2018-06-05T10:00:56.669Z,13.90
2018-06-05T10:03:25.764Z,14.70
2018-06-05T10:05:54.869Z,14.63
2018-06-05T10:08:23.967Z,16.10
2018-06-05T10:10:53.044Z,16.60
2018-06-05T10:13:22.211Z,16.07
2018-06-05T10:15:51.341Z,17.60
2018-06-05T10:18:20.392Z,15.67
2018-06-05T10:20:49.495Z,15.30
2018-06-05T10:23:18.539Z,15.13
2018-06-05T10:25:47.619Z,15.47
2018-06-05T10:28:16.735Z,15.37
2018-06-05T10:30:45.806Z,14.10
2018-06-05T10:33:14.888Z,14.90
2018-06-05T10:35:44.153Z,13.80
2018-06-05T10:38:13.251Z,13.97
2018-06-05T10:40:42.399Z,14.97
2018-06-05T10:43:11.463Z,15.47
2018-06-05T10:45:40.527Z,16.30
2018-06-05T10:48:09.604Z,16.10
2018-06-05T10:50:39.031Z,17.13
2018-06-05T10:53:08.498Z,15.43
2018-06-05T10:55:37.583Z,13.87
2018-06-05T10:58:06.683Z,15.57
2018-06-05T11:00:35.735Z,16.00
2018-06-05T11:03:04.823Z,15.47
2018-06-05T11:05:33.899Z,15.20
2018-06-05T11:08:03.122Z,13.80
2018-06-05T11:10:32.234Z,13.70
2018-06-05T11:13:01.347Z,13.00
2018-06-05T11:15:30.456Z,13.10
2018-06-05T11:17:59.531Z,13.80
2018-06-05T11:20:28.651Z,15.70
2018-06-05T11:22:57.743Z,13.70
2018-06-05T11:25:26.882Z,14.50
2018-06-05T11:27:55.953Z,15.70
2018-06-05T11:30:25.060Z,15.30
2018-06-05T11:32:54.186Z,15.40
2018-06-05T11:35:23.256Z,13.37
2018-06-05T11:37:52.326Z,12.87
2018-06-05T11:40:21.419Z,11.73
2018-06-05T11:42:50.490Z,14.27
2018-06-05T11:45:19.567Z,15.80
2018-06-05T11:47:48.670Z,14.37
2018-06-05T11:50:17.703Z,12.63
2018-06-05T11:52:46.775Z,12.20
2018-06-05T11:55:15.885Z,13.03
2018-06-05T11:57:44.950Z,11.57
2018-06-05T12:00:14.043Z,12.23
2018-06-05T12:02:43.129Z,12.03
2018-06-05T12:05:12.299Z,13.20
2018-06-05T12:07:41.382Z,12.90
2018-06-05T12:10:10.466Z,12.77
2018-06-05T12:12:39.590Z,13.07
2018-06-05T12:15:08.710Z,12.07
2018-06-05T12:17:37.926Z,12.17
2018-06-05T12:20:07.057Z,11.60
2018-06-05T12:22:36.147Z,14.20
2018-06-05T12:25:05.243Z,13.97
2018-06-05T12:27:34.331Z,13.53
2018-06-05T12:30:03.469Z,12.80
2018-06-05T12:32:33.300Z,13.50
2018-06-05T12:35:02.374Z,13.33
2018-06-05T12:37:31.479Z,13.40
2018-06-05T12:40:00.597Z,13.27
2018-06-05T12:42:29.687Z,12.03
2018-06-05T12:44:58.784Z,11.63
2018-06-05T12:47:27.889Z,11.73
2018-06-05T12:49:56.975Z,12.57
2018-06-05T12:52:26.047Z,12.50
2018-06-05T12:54:55.242Z,11.07
2018-06-05T12:57:24.322Z,11.73
2018-06-05T12:59:53.535Z,12.13
2018-06-05T13:02:22.619Z,12.13
2018-06-05T13:04:51.731Z,11.53
2018-06-05T13:07:20.810Z,11.17
2018-06-05T13:09:49.918Z,10.90
2018-06-05T13:12:19.051Z,10.57
2018-06-05T13:14:48.144Z,10.40
2018-06-05T13:17:17.272Z,11.00
2018-06-05T13:19:46.371Z,11.10
2018-06-05T13:22:15.443Z,12.03
2018-06-05T13:24:44.539Z,12.40
2018-06-05T13:27:13.635Z,10.17
2018-06-05T13:29:42.755Z,10.07
2018-06-05T13:32:11.921Z,12.10
2018-06-05T13:34:41.011Z,11.27
2018-06-05T13:37:10.098Z,10.50
2018-06-05T13:39:39.293Z,9.50
2018-06-05T13:42:08.375Z,10.93
2018-06-05T13:44:37.412Z,9.20
2018-06-05T13:47:06.527Z,10.10
2018-06-05T13:49:36.595Z,11.00
2018-06-05T13:52:05.907Z,10.50
2018-06-05T13:54:35.019Z,10.97
2018-06-05T13:57:04.136Z,9.30
2018-06-05T13:59:33.203Z,8.97
2018-06-05T14:02:02.273Z,9.27
2018-06-05T14:04:31.363Z,10.93
2018-06-05T14:07:00.462Z,11.13
2018-06-05T14:09:29.579Z,10.70
2018-06-05T14:11:58.687Z,8.63
2018-06-05T14:14:27.868Z,11.73
2018-06-05T14:16:57.107Z,10.63
2018-06-05T14:19:26.379Z,9.43
2018-06-05T14:21:55.497Z,10.67
2018-06-05T14:24:24.684Z,10.23
2018-06-05T14:26:53.750Z,9.43
2018-06-05T14:29:22.842Z,9.57
2018-06-05T14:31:51.962Z,9.67
2018-06-05T14:34:21.075Z,10.30
2018-06-05T14:36:50.164Z,11.33
2018-06-05T14:39:19.264Z,10.00
2018-06-05T14:41:48.431Z,9.33
2018-06-05T14:44:17.541Z,10.83
2018-06-05T14:46:46.652Z,10.30
2018-06-05T14:49:15.753Z,10.10
2018-06-05T14:51:44.850Z,9.77
2018-06-05T14:54:13.998Z,9.33
2018-06-05T14:56:43.071Z,9.50
2018-06-05T14:59:12.128Z,9.53
2018-06-05T15:01:41.239Z,8.83
2018-06-05T15:04:10.341Z,9.30
2018-06-05T15:06:39.402Z,9.03
2018-06-05T15:09:08.474Z,9.03
2018-06-05T15:11:37.575Z,9.97
2018-06-05T15:14:06.636Z,9.37
2018-06-05T15:16:37.720Z,9.40
2018-06-05T15:19:06.693Z,9.57
2018-06-05T15:21:35.753Z,9.30
2018-06-05T15:24:04.592Z,8.83
2018-06-05T15:26:33.367Z,9.50
2018-06-05T15:29:02.261Z,8.70
2018-06-05T15:31:31.320Z,9.00
2018-06-05T15:34:00.407Z,8.90
2018-06-05T15:36:29.543Z,9.73
2018-06-05T15:38:58.601Z,8.90
2018-06-05T15:41:27.662Z,8.30
2018-06-05T15:43:56.756Z,9.00
2018-06-05T15:46:25.807Z,9.97
2018-06-05T15:48:55.133Z,8.70
2018-06-05T15:51:24.183Z,8.87
2018-06-05T15:53:53.244Z,9.60
2018-06-05T15:56:22.342Z,8.07
2018-06-05T15:58:51.438Z,9.50
2018-06-05T16:01:20.532Z,9.13
2018-06-05T16:03:49.567Z,9.90
2018-06-05T16:06:18.659Z,9.10
2018-06-05T16:08:47.741Z,9.47
2018-06-05T16:11:16.907Z,10.40
2018-06-05T16:13:45.988Z,11.17
2018-06-05T16:16:15.040Z,9.83
2018-06-05T16:18:44.184Z,11.37
2018-06-05T16:21:13.306Z,10.00
2018-06-05T16:23:42.367Z,9.40
2018-06-05T16:26:11.466Z,9.17
2018-06-05T16:28:40.532Z,8.90
2018-06-05T16:31:09.614Z,8.60
2018-06-05T16:33:38.825Z,9.80
2018-06-05T16:36:07.907Z,9.93
2018-06-05T16:38:37.177Z,11.83
2018-06-05T16:41:06.235Z,12.47
2018-06-05T16:43:35.095Z,12.10
2018-06-05T16:46:04.052Z,10.93
2018-06-05T16:48:33.148Z,10.13
2018-06-05T16:51:02.239Z,9.57
2018-06-05T16:53:31.376Z,9.47
2018-06-05T16:56:00.218Z,10.90
2018-06-05T16:58:29.191Z,11.47
2018-06-05T17:00:58.310Z,10.80
2018-06-05T17:03:27.379Z,12.23
2018-06-05T17:05:56.524Z,12.83
2018-06-05T17:08:25.680Z,11.97
2018-06-05T17:10:54.832Z,12.53
2018-06-05T17:13:24.063Z,12.93
2018-06-05T17:15:53.436Z,11.97
2018-06-05T17:18:22.562Z,11.00
2018-06-05T17:20:51.383Z,10.20
2018-06-05T17:23:20.390Z,10.00
2018-06-05T17:25:49.491Z,9.90
2018-06-05T17:28:18.560Z,11.80
2018-06-05T17:30:47.630Z,10.50
2018-06-05T17:33:16.442Z,12.43
2018-06-05T17:35:45.444Z,10.10
2018-06-05T17:38:14.514Z,10.13
2018-06-05T17:40:43.615Z,12.50
2018-06-05T17:43:12.810Z,14.40
2018-06-05T17:45:41.638Z,11.87
2018-06-05T17:48:10.716Z,15.37
2018-06-05T17:50:39.920Z,16.70
2018-06-05T17:53:09.127Z,13.50
2018-06-05T17:55:38.243Z,10.97
2018-06-05T17:58:07.343Z,13.07
2018-06-05T18:00:36.457Z,11.37
2018-06-05T18:03:05.595Z,12.67
2018-06-05T18:05:34.752Z,10.50
2018-06-05T18:08:03.838Z,10.37
2018-06-05T18:10:32.994Z,10.83
2018-06-05T18:13:02.047Z,10.83
2018-06-05T18:15:31.207Z,12.53
2018-06-05T18:18:00.303Z,10.33
2018-06-05T18:20:29.452Z,10.53
2018-06-05T18:22:58.614Z,11.50
2018-06-05T18:25:27.683Z,13.60
2018-06-05T18:27:56.767Z,11.77
2018-06-05T18:30:25.846Z,11.53
2018-06-05T18:32:54.999Z,11.20
2018-06-05T18:35:24.071Z,13.93
2018-06-05T18:37:53.209Z,9.13
2018-06-05T18:40:22.347Z,10.93
2018-06-05T18:42:51.387Z,8.40
2018-06-05T18:45:20.475Z,7.40
2018-06-05T18:47:49.567Z,7.37
2018-06-05T18:50:18.707Z,8.63
2018-06-05T18:52:47.880Z,9.70
2018-06-05T18:55:16.964Z,7.30
2018-06-05T18:57:46.027Z,7.30
2018-06-05T19:00:15.486Z,7.27
2018-06-05T19:02:44.726Z,6.87
2018-06-05T19:05:13.845Z,8.10
2018-06-05T19:07:42.988Z,8.17
2018-06-05T19:10:12.162Z,8.70
2018-06-05T19:12:41.357Z,7.17
2018-06-05T19:15:10.615Z,7.33
2018-06-05T19:17:39.882Z,7.00
2018-06-05T19:20:09.067Z,8.70
2018-06-05T19:22:38.348Z,7.83
2018-06-05T19:25:07.479Z,7.50
2018-06-05T19:27:36.692Z,7.20
2018-06-05T19:30:05.916Z,7.27
2018-06-05T19:32:35.052Z,7.30
2018-06-05T19:35:04.297Z,8.23
2018-06-05T19:37:33.582Z,7.20
2018-06-05T19:40:02.722Z,7.13
2018-06-05T19:42:31.911Z,7.47
2018-06-05T19:45:01.323Z,7.60
2018-06-05T19:47:30.735Z,7.47
2018-06-05T19:49:59.971Z,8.60
2018-06-05T19:52:29.125Z,8.00
2018-06-05T19:54:58.252Z,8.00
2018-06-05T19:57:27.347Z,7.23
2018-06-05T19:59:56.491Z,7.47
2018-06-05T20:02:25.663Z,8.83
2018-06-05T20:04:54.942Z,9.40
2018-06-05T20:07:24.140Z,9.93
2018-06-05T20:09:53.462Z,8.50
2018-06-05T20:12:22.658Z,7.60
2018-06-05T20:14:51.822Z,8.13
2018-06-05T20:17:20.952Z,8.90
2018-06-05T20:19:50.140Z,9.03
2018-06-05T20:22:19.258Z,8.60
2018-06-05T20:24:48.390Z,9.37
2018-06-05T20:27:17.512Z,8.77
2018-06-05T20:29:46.745Z,8.47
2018-06-05T20:32:15.627Z,8.80
2018-06-05T20:34:44.763Z,11.17
2018-06-05T20:37:13.645Z,8.40
2018-06-05T20:39:42.755Z,8.60
2018-06-05T20:42:11.842Z,9.20
2018-06-05T20:44:40.993Z,10.27
2018-06-05T20:47:10.093Z,9.87
2018-06-05T20:49:39.187Z,9.10
2018-06-05T20:52:08.246Z,9.00
2018-06-05T20:54:37.371Z,9.23
2018-06-05T20:57:06.455Z,9.73
2018-06-05T20:59:35.565Z,9.23
2018-06-05T21:02:04.639Z,9.20
2018-06-05T21:04:33.775Z,9.67
2018-06-05T21:07:02.871Z,10.60
2018-06-05T21:09:31.990Z,10.10
2018-06-05T21:12:00.862Z,9.60
2018-06-05T21:14:29.850Z,9.70
2018-06-05T21:16:58.918Z,9.70
2018-06-05T21:19:28.067Z,11.10
2018-06-05T21:21:57.132Z,9.73
2018-06-05T21:24:26.235Z,22.07
2018-06-05T21:26:55.359Z,91.80
2018-06-05T21:29:24.226Z,20.70
2018-06-05T21:31:53.298Z,11.17
2018-06-05T21:34:22.382Z,47.17
2018-06-05T21:36:51.478Z,18.33
2018-06-05T21:39:20.571Z,9.73
2018-06-05T21:41:49.732Z,9.70
2018-06-05T21:44:18.811Z,11.20
2018-06-05T21:46:47.908Z,11.03
2018-06-05T21:49:17.055Z,10.50
2018-06-05T21:51:46.154Z,10.43
2018-06-05T21:54:15.275Z,11.33
2018-06-05T21:56:44.366Z,11.33
2018-06-05T21:59:13.456Z,10.70
2018-06-05T22:01:42.597Z,11.10
2018-06-05T22:04:11.686Z,10.43
2018-06-05T22:06:40.788Z,10.70
2018-06-05T22:09:09.875Z,11.37
2018-06-05T22:11:38.980Z,11.80
2018-06-05T22:14:08.081Z,10.23
2018-06-05T22:16:37.196Z,10.17
2018-06-05T22:19:06.379Z,11.03
2018-06-05T22:21:35.474Z,11.80
2018-06-05T22:24:04.568Z,10.97
2018-06-05T22:26:33.768Z,11.20
2018-06-05T22:29:02.878Z,12.30
2018-06-05T22:31:31.955Z,11.50
2018-06-05T22:34:01.058Z,11.73
2018-06-05T22:36:30.187Z,11.50
2018-06-05T22:38:59.300Z,10.83
2018-06-05T22:41:39.143Z,12.40
2018-06-05T22:44:08.228Z,12.20
2018-06-05T22:46:37.319Z,12.27
2018-06-05T22:49:06.408Z,12.27
2018-06-05T22:51:35.554Z,12.27
2018-06-05T22:54:04.659Z,10.43
2018-06-05T22:56:33.973Z,10.87
2018-06-05T22:59:03.068Z,10.13
2018-06-05T23:01:32.354Z,11.00
2018-06-05T23:04:01.413Z,10.70
2018-06-05T23:06:30.538Z,9.43
2018-06-05T23:08:59.612Z,9.03
2018-06-05T23:11:28.698Z,10.57
2018-06-05T23:13:57.902Z,10.10
2018-06-05T23:16:27.025Z,10.27
2018-06-05T23:18:56.131Z,8.97
2018-06-05T23:21:25.222Z,8.60
2018-06-05T23:23:54.275Z,8.43
2018-06-05T23:26:23.360Z,8.53
2018-06-05T23:28:52.609Z,8.07
2018-06-05T23:31:21.677Z,9.10
2018-06-05T23:33:50.747Z,8.40
2018-06-05T23:36:19.829Z,7.60
2018-06-05T23:38:49.142Z,7.57
2018-06-05T23:41:18.224Z,7.73
2018-06-05T23:43:47.380Z,7.40
2018-06-05T23:46:16.468Z,7.87
2018-06-05T23:48:45.554Z,6.53
2018-06-05T23:51:14.632Z,6.60
2018-06-05T23:53:43.707Z,6.07
2018-06-05T23:56:12.767Z,6.70
2018-06-05T23:58:41.863Z,5.20
